Disclaimer

Please do not use the information listed here in-flight or in-navigation, as they are not provided to us by the airports but are provided by volunteers, so they might be outdated.

Search


Regions


Airport information page

Radio informations:
MELUN TWR - 121.1 MHz
Automatic Terminal Information Service (ATIS) - 128.175 MHz
SEINE APP - 118.05 MHz

Airport informations:
Latitude: 48° 36' 17.01" N
Longitude: 002° 40' 16.03" E
Elevation: 302 feet - 92 meters
Operating hours: Remarks
Operating agency: Civil government, landing fees and diplomatic clearance may be required
Timezone: UTC+1(+2DT) - Last Sunday in March to last Sunday in October
Fuel: Jet A1, without icing nhibitor.

100/130 MIL Spec, low lead, aviation gasoline (BLUE)

Runway information:
01/19 - 4265 x 98 feet< - >1300 x 30 meters
10/28 - 6480 x 148 feet< - >1975 x 45 meters

Recent METARs:
LFPM 170900Z AUTO 23016KT 9999 BKN019 BKN025 BKN033 05/04 Q1009
LFPM 170930Z AUTO 25015KT 9999 BKN020 BKN027 BKN033 06/04 Q1010
LFPM 171000Z AUTO 25015KT 9999 BKN023 OVC029 06/03 Q1010

Airport on the map: